createdAt,value
2023-05-19T00:00:58.662Z,10.67
2023-05-19T00:03:25.746Z,10.63
2023-05-19T00:05:53.903Z,10.60
2023-05-19T00:08:23.231Z,10.58
2023-05-19T00:10:50.281Z,10.55
2023-05-19T00:13:17.477Z,10.53
2023-05-19T00:15:44.675Z,10.49
2023-05-19T00:18:11.335Z,10.46
2023-05-19T00:20:38.043Z,10.43
2023-05-19T00:23:04.733Z,10.41
2023-05-19T00:25:32.661Z,10.39
2023-05-19T00:27:59.258Z,10.36
2023-05-19T00:30:25.838Z,10.33
2023-05-19T00:32:52.501Z,10.32
2023-05-19T00:35:19.983Z,10.30
2023-05-19T00:37:46.541Z,10.28
2023-05-19T00:40:13.441Z,10.28
2023-05-19T00:42:41.783Z,10.27
2023-05-19T00:45:09.016Z,10.25
2023-05-19T00:47:35.768Z,10.24
2023-05-19T00:50:06.008Z,10.22
2023-05-19T00:52:32.672Z,10.18
2023-05-19T00:54:59.781Z,10.15
2023-05-19T00:57:26.355Z,10.12
2023-05-19T00:59:54.529Z,10.08
2023-05-19T01:02:21.275Z,10.04
2023-05-19T01:04:48.057Z,9.98
2023-05-19T01:07:15.155Z,9.95
2023-05-19T01:09:41.905Z,9.92
2023-05-19T01:12:08.966Z,9.89
2023-05-19T01:14:35.733Z,9.84
2023-05-19T01:17:08.136Z,9.80
2023-05-19T01:19:55.896Z,9.76
2023-05-19T01:22:38.672Z,9.72
2023-05-19T01:25:36.684Z,9.67
2023-05-19T01:28:26.331Z,9.63
2023-05-19T01:30:55.963Z,9.58
2023-05-19T01:33:24.126Z,9.54
2023-05-19T01:35:51.475Z,9.49
2023-05-19T01:38:20.760Z,9.45
2023-05-19T01:40:49.354Z,9.40
2023-05-19T01:43:18.533Z,9.36
2023-05-19T01:45:46.056Z,9.31
2023-05-19T01:48:14.816Z,9.28
2023-05-19T01:50:42.194Z,9.25
2023-05-19T01:53:08.809Z,9.20
2023-05-19T01:55:36.408Z,9.16
2023-05-19T01:58:10.178Z,9.13
2023-05-19T02:00:51.343Z,9.09
2023-05-19T02:03:41.446Z,9.03
2023-05-19T02:06:22.666Z,8.98
2023-05-19T02:08:57.148Z,8.93
2023-05-19T02:11:30.604Z,8.89
2023-05-19T02:13:59.130Z,8.83
2023-05-19T02:16:28.583Z,8.81
2023-05-19T02:18:56.797Z,8.78
2023-05-19T02:21:23.494Z,8.77
2023-05-19T02:23:50.596Z,8.74
2023-05-19T02:26:17.228Z,8.70
2023-05-19T02:28:43.781Z,8.68
2023-05-19T02:31:10.372Z,8.64
2023-05-19T02:33:37.238Z,8.60
2023-05-19T02:36:06.156Z,8.58
2023-05-19T02:38:32.751Z,8.54
2023-05-19T02:40:59.341Z,8.53
2023-05-19T02:43:25.912Z,8.50
2023-05-19T02:45:52.598Z,8.49
2023-05-19T02:48:19.325Z,8.47
2023-05-19T02:50:45.902Z,8.45
2023-05-19T02:53:13.790Z,8.46
2023-05-19T02:55:40.377Z,8.44
2023-05-19T02:58:06.959Z,8.44
2023-05-19T03:00:33.750Z,8.42
2023-05-19T03:03:00.572Z,8.41
2023-05-19T03:05:27.246Z,8.40
2023-05-19T03:07:53.824Z,8.39
2023-05-19T03:10:21.808Z,8.40
2023-05-19T03:12:48.377Z,8.41
2023-05-19T03:15:14.985Z,8.42
2023-05-19T03:17:41.716Z,8.43
2023-05-19T03:20:09.329Z,8.44
2023-05-19T03:22:35.870Z,8.44
2023-05-19T03:25:02.517Z,8.44
2023-05-19T03:27:30.652Z,8.48
2023-05-19T03:29:57.205Z,8.48
2023-05-19T03:32:24.072Z,8.49
2023-05-19T03:34:50.755Z,8.51
2023-05-19T03:37:17.438Z,8.51
2023-05-19T03:39:44.092Z,8.52
2023-05-19T03:42:10.710Z,8.53
2023-05-19T03:44:38.680Z,8.52
2023-05-19T03:47:05.875Z,8.54
2023-05-19T03:49:32.507Z,8.56
2023-05-19T03:51:59.120Z,8.60
2023-05-19T03:54:25.789Z,8.70
2023-05-19T03:56:52.408Z,8.90
2023-05-19T03:59:19.002Z,9.23
2023-05-19T04:01:47.155Z,9.58
2023-05-19T04:04:13.776Z,9.90
2023-05-19T04:06:40.370Z,10.13
2023-05-19T04:09:12.002Z,10.27
2023-05-19T04:11:38.582Z,10.36
2023-05-19T04:14:05.195Z,10.47
2023-05-19T04:16:32.271Z,10.58
2023-05-19T04:19:00.525Z,10.63
2023-05-19T04:21:27.524Z,10.64
2023-05-19T04:23:54.134Z,10.59
2023-05-19T04:26:20.873Z,10.63
2023-05-19T04:28:47.813Z,10.75
2023-05-19T04:31:14.495Z,10.91
2023-05-19T04:33:41.369Z,11.09
2023-05-19T04:36:09.862Z,11.33
2023-05-19T04:38:36.796Z,11.44
2023-05-19T04:41:03.444Z,11.46
2023-05-19T04:43:30.095Z,11.51
2023-05-19T04:45:56.960Z,11.55
2023-05-19T04:48:23.598Z,11.64
2023-05-19T04:50:50.394Z,11.72
2023-05-19T04:53:18.371Z,11.87
2023-05-19T04:55:44.964Z,11.93
2023-05-19T04:58:11.525Z,12.02
2023-05-19T05:00:38.061Z,12.16
2023-05-19T05:03:04.721Z,12.19
2023-05-19T05:05:31.517Z,12.31
2023-05-19T05:07:58.628Z,12.49
2023-05-19T05:10:26.718Z,12.60
2023-05-19T05:12:53.889Z,12.63
2023-05-19T05:15:22.143Z,12.65
2023-05-19T05:17:49.302Z,12.65
2023-05-19T05:20:16.790Z,12.81
2023-05-19T05:22:43.882Z,13.01
2023-05-19T05:25:12.207Z,13.05
2023-05-19T05:27:40.481Z,13.04
2023-05-19T05:30:08.347Z,13.05
2023-05-19T05:32:35.450Z,13.07
2023-05-19T05:35:02.280Z,13.14
2023-05-19T05:37:30.508Z,13.37
2023-05-19T05:39:57.171Z,13.63
2023-05-19T05:42:23.809Z,13.90
2023-05-19T05:44:52.017Z,13.98
2023-05-19T05:47:19.187Z,14.01
2023-05-19T05:49:46.440Z,14.05
2023-05-19T05:52:13.133Z,14.16
2023-05-19T05:54:40.476Z,14.27
2023-05-19T05:57:08.160Z,14.34
2023-05-19T05:59:34.734Z,14.44
2023-05-19T06:02:04.102Z,14.53
2023-05-19T06:04:30.731Z,14.55
2023-05-19T06:06:57.328Z,14.64
2023-05-19T06:09:24.544Z,14.79
2023-05-19T06:11:51.278Z,14.92
2023-05-19T06:14:17.876Z,15.07
2023-05-19T06:16:44.432Z,15.09
2023-05-19T06:19:12.717Z,15.14
2023-05-19T06:21:39.364Z,15.30
2023-05-19T06:24:06.560Z,15.47
2023-05-19T06:26:33.271Z,15.53
2023-05-19T06:28:59.867Z,15.59
2023-05-19T06:31:29.067Z,15.72
2023-05-19T06:33:55.699Z,15.82
2023-05-19T06:36:23.781Z,15.89
2023-05-19T06:38:50.366Z,15.92
2023-05-19T06:41:17.018Z,15.83
2023-05-19T06:43:43.659Z,15.75
2023-05-19T06:46:10.225Z,15.80
2023-05-19T06:48:36.795Z,15.85
2023-05-19T06:51:03.978Z,15.87
2023-05-19T06:53:31.897Z,16.00
2023-05-19T06:55:59.793Z,16.27
2023-05-19T06:58:27.107Z,16.50
2023-05-19T07:00:53.919Z,16.75
2023-05-19T07:03:20.686Z,16.88
2023-05-19T07:05:50.227Z,17.07
2023-05-19T07:08:16.777Z,17.33
2023-05-19T07:10:44.701Z,17.55
2023-05-19T07:13:11.313Z,17.66
2023-05-19T07:15:37.906Z,17.68
2023-05-19T07:18:04.752Z,17.74
2023-05-19T07:20:31.629Z,17.85
2023-05-19T07:22:58.559Z,18.07
2023-05-19T07:25:25.202Z,18.12
2023-05-19T07:27:53.204Z,18.12
2023-05-19T07:30:20.315Z,18.27
2023-05-19T07:32:46.980Z,18.43
2023-05-19T07:35:14.020Z,18.41
2023-05-19T07:37:40.635Z,18.44
2023-05-19T07:40:08.370Z,18.40
2023-05-19T07:42:35.091Z,18.38
2023-05-19T07:45:03.273Z,18.37
2023-05-19T07:47:30.750Z,18.29
2023-05-19T07:49:57.367Z,18.25
2023-05-19T07:52:23.976Z,18.44
2023-05-19T07:54:50.615Z,18.63
2023-05-19T07:57:17.283Z,18.66
2023-05-19T07:59:43.987Z,18.73
2023-05-19T08:02:12.583Z,18.78
2023-05-19T08:04:39.484Z,18.76
2023-05-19T08:07:06.147Z,18.77
2023-05-19T08:09:32.814Z,18.85
2023-05-19T08:11:59.460Z,19.01
2023-05-19T08:14:26.070Z,19.04
2023-05-19T08:16:52.672Z,18.98
2023-05-19T08:19:20.817Z,19.02
2023-05-19T08:21:48.810Z,18.98
2023-05-19T08:24:16.543Z,19.08
2023-05-19T08:26:44.080Z,19.16
2023-05-19T08:29:10.732Z,19.33
2023-05-19T08:31:37.447Z,19.49
2023-05-19T08:34:04.084Z,19.58
2023-05-19T08:36:32.029Z,19.56
2023-05-19T08:38:58.593Z,19.47
2023-05-19T08:41:25.166Z,19.49
2023-05-19T08:43:51.873Z,19.47
2023-05-19T08:46:21.503Z,19.49
2023-05-19T08:48:48.468Z,19.39
2023-05-19T08:51:32.504Z,19.40
2023-05-19T08:54:14.507Z,19.40
2023-05-19T08:56:43.470Z,19.59
2023-05-19T08:59:11.302Z,19.73
2023-05-19T09:01:39.087Z,19.83
2023-05-19T09:04:06.285Z,19.80
2023-05-19T09:06:33.263Z,19.67
2023-05-19T09:09:01.574Z,19.56
2023-05-19T09:11:28.243Z,19.54
2023-05-19T09:13:54.966Z,19.53
2023-05-19T09:16:21.964Z,19.46
2023-05-19T09:18:55.224Z,19.51
2023-05-19T09:21:27.826Z,19.63
2023-05-19T09:23:54.457Z,19.73
2023-05-19T09:26:22.580Z,19.75
2023-05-19T09:28:49.441Z,19.71
2023-05-19T09:31:16.097Z,19.72
2023-05-19T09:33:45.587Z,19.88
2023-05-19T09:36:12.509Z,20.00
2023-05-19T09:38:39.225Z,20.17
2023-05-19T09:41:07.213Z,20.29
2023-05-19T09:43:35.750Z,20.35
2023-05-19T09:46:04.656Z,20.43
2023-05-19T09:48:31.471Z,20.48
2023-05-19T09:51:00.169Z,20.45
2023-05-19T09:53:29.264Z,20.43
2023-05-19T09:55:56.758Z,20.43
2023-05-19T09:58:23.693Z,20.40
2023-05-19T10:00:53.302Z,20.51
2023-05-19T10:03:20.744Z,20.61
2023-05-19T10:05:48.535Z,20.59
2023-05-19T10:08:17.216Z,20.42
2023-05-19T10:10:45.991Z,20.36
2023-05-19T10:13:12.909Z,20.38
2023-05-19T10:15:57.204Z,20.42
2023-05-19T10:18:27.543Z,20.45
2023-05-19T10:20:54.949Z,20.42
2023-05-19T10:23:21.655Z,20.41
2023-05-19T10:25:49.444Z,20.40
2023-05-19T10:28:18.457Z,20.46
2023-05-19T10:30:48.834Z,20.51
2023-05-19T10:33:17.640Z,20.60
2023-05-19T10:36:19.862Z,20.62
2023-05-19T10:38:53.286Z,20.51
2023-05-19T10:41:34.706Z,20.38
2023-05-19T10:44:09.485Z,20.34
2023-05-19T10:46:36.303Z,20.34
2023-05-19T10:49:02.980Z,20.47
2023-05-19T10:51:32.443Z,20.48
2023-05-19T10:54:01.860Z,20.52
2023-05-19T10:56:29.498Z,20.59
2023-05-19T10:58:56.147Z,20.66
2023-05-19T11:01:22.790Z,20.66
2023-05-19T11:03:50.912Z,20.54
2023-05-19T11:06:25.067Z,20.33
2023-05-19T11:08:58.184Z,20.24
2023-05-19T11:11:24.816Z,20.43
2023-05-19T11:13:52.484Z,20.71
2023-05-19T11:16:19.988Z,20.95
2023-05-19T11:18:48.873Z,21.20
2023-05-19T11:21:15.550Z,21.47
2023-05-19T11:23:42.323Z,21.54
2023-05-19T11:26:10.312Z,21.47
2023-05-19T11:28:37.194Z,21.33
2023-05-19T11:31:05.452Z,21.26
2023-05-19T11:33:32.427Z,21.15
2023-05-19T11:35:59.249Z,21.06
2023-05-19T11:38:26.538Z,21.01
2023-05-19T11:40:54.089Z,21.02
2023-05-19T11:43:23.939Z,21.10
2023-05-19T11:45:50.697Z,21.22
2023-05-19T11:48:21.032Z,21.10
2023-05-19T11:50:47.799Z,21.04
2023-05-19T11:53:15.508Z,21.14
2023-05-19T11:55:42.771Z,21.39
2023-05-19T11:58:09.367Z,21.63
2023-05-19T12:00:40.202Z,21.84
2023-05-19T12:03:08.873Z,21.96
2023-05-19T12:05:41.838Z,21.64
2023-05-19T12:08:09.852Z,21.49
2023-05-19T12:10:38.418Z,21.50
2023-05-19T12:13:06.105Z,21.59
2023-05-19T12:15:32.926Z,21.79
2023-05-19T12:18:02.487Z,22.00
2023-05-19T12:20:30.559Z,22.08
2023-05-19T12:22:57.785Z,22.02
2023-05-19T12:25:24.585Z,21.95
2023-05-19T12:27:51.491Z,21.96
2023-05-19T12:30:18.477Z,22.24
2023-05-19T12:32:46.489Z,22.41
2023-05-19T12:35:15.686Z,22.41
2023-05-19T12:37:42.729Z,22.28
2023-05-19T12:40:14.851Z,22.21
2023-05-19T12:42:44.640Z,22.42
2023-05-19T12:45:11.228Z,22.64
2023-05-19T12:47:38.007Z,22.72
2023-05-19T12:50:06.788Z,22.55
2023-05-19T12:52:42.480Z,22.54
2023-05-19T12:55:09.970Z,22.50
2023-05-19T12:57:38.911Z,22.45
2023-05-19T13:00:07.751Z,22.26
2023-05-19T13:02:35.381Z,22.11
2023-05-19T13:05:02.410Z,22.06
2023-05-19T13:07:29.000Z,21.90
2023-05-19T13:09:57.380Z,21.85
2023-05-19T13:12:24.370Z,22.06
2023-05-19T13:14:51.645Z,22.28
2023-05-19T13:17:19.591Z,22.45
2023-05-19T13:19:46.325Z,22.66
2023-05-19T13:22:12.933Z,22.84
2023-05-19T13:24:39.530Z,22.85
2023-05-19T13:27:07.601Z,22.75
2023-05-19T13:29:34.164Z,22.46
2023-05-19T13:32:01.461Z,22.26
2023-05-19T13:34:28.294Z,22.06
2023-05-19T13:36:54.949Z,21.82
2023-05-19T13:39:21.611Z,21.75
2023-05-19T13:41:48.205Z,21.72
2023-05-19T13:44:16.262Z,21.77
2023-05-19T13:46:46.037Z,21.88
2023-05-19T13:49:13.509Z,21.82
2023-05-19T13:51:42.924Z,21.62
2023-05-19T13:54:09.538Z,21.42
2023-05-19T13:56:36.558Z,21.43
2023-05-19T13:59:04.056Z,21.40
2023-05-19T14:01:32.224Z,21.43
2023-05-19T14:03:58.922Z,21.49
2023-05-19T14:06:25.671Z,21.54
2023-05-19T14:08:52.417Z,21.53
2023-05-19T14:11:19.814Z,21.47
2023-05-19T14:13:50.035Z,21.47
2023-05-19T14:16:18.379Z,21.42
2023-05-19T14:18:46.417Z,21.36
2023-05-19T14:21:13.092Z,21.14
2023-05-19T14:23:39.914Z,21.06
2023-05-19T14:26:06.749Z,21.04
2023-05-19T14:28:33.348Z,20.98
2023-05-19T14:31:00.244Z,20.97
2023-05-19T14:33:26.993Z,21.00
2023-05-19T14:35:55.083Z,21.09
2023-05-19T14:38:21.841Z,21.15
2023-05-19T14:40:48.474Z,21.33
2023-05-19T14:43:15.108Z,21.39
2023-05-19T14:45:41.779Z,21.37
2023-05-19T14:48:08.399Z,21.45
2023-05-19T14:50:35.230Z,21.48
2023-05-19T14:53:03.269Z,21.43
2023-05-19T14:55:29.833Z,21.46
2023-05-19T14:57:56.572Z,21.50
2023-05-19T15:00:23.363Z,21.52
2023-05-19T15:02:50.009Z,21.37
2023-05-19T15:05:16.909Z,21.30
2023-05-19T15:07:43.501Z,21.26
2023-05-19T15:10:15.525Z,21.10
2023-05-19T15:12:42.284Z,20.99
2023-05-19T15:15:09.747Z,20.97
2023-05-19T15:17:36.750Z,20.91
2023-05-19T15:20:03.832Z,20.83
2023-05-19T15:22:30.444Z,20.79
2023-05-19T15:24:57.060Z,20.80
2023-05-19T15:27:25.147Z,20.88
2023-05-19T15:29:51.704Z,21.03
2023-05-19T15:32:18.355Z,21.10
2023-05-19T15:34:44.937Z,21.11
2023-05-19T15:37:11.510Z,21.14
2023-05-19T15:39:38.328Z,21.12
2023-05-19T15:42:05.204Z,21.01
2023-05-19T15:44:33.150Z,20.90
2023-05-19T15:46:59.973Z,20.84
2023-05-19T15:49:26.509Z,20.71
2023-05-19T15:51:53.096Z,20.72
2023-05-19T15:54:19.807Z,20.73
2023-05-19T15:56:46.435Z,20.69
2023-05-19T15:59:13.075Z,20.74
2023-05-19T16:01:41.386Z,20.77
2023-05-19T16:04:08.040Z,20.75
2023-05-19T16:06:34.651Z,20.76
2023-05-19T16:09:01.309Z,20.81
2023-05-19T16:11:28.003Z,20.93
2023-05-19T16:13:54.614Z,20.93
2023-05-19T16:16:21.282Z,20.92
2023-05-19T16:18:49.287Z,20.97
2023-05-19T16:21:15.910Z,20.96
2023-05-19T16:23:42.843Z,20.97
2023-05-19T16:26:09.393Z,20.96
2023-05-19T16:28:35.997Z,20.82
2023-05-19T16:31:02.630Z,20.63
2023-05-19T16:33:29.388Z,20.56
2023-05-19T16:35:58.002Z,20.48
2023-05-19T16:38:24.733Z,20.44
2023-05-19T16:40:51.330Z,20.36
2023-05-19T16:43:17.897Z,20.25
2023-05-19T16:45:44.620Z,20.14
2023-05-19T16:48:11.302Z,20.09
2023-05-19T16:50:38.156Z,20.03
2023-05-19T16:53:06.300Z,19.95
2023-05-19T16:55:32.852Z,19.81
2023-05-19T16:57:59.639Z,19.68
2023-05-19T17:00:26.250Z,19.56
2023-05-19T17:02:53.138Z,19.44
2023-05-19T17:05:19.823Z,19.32
2023-05-19T17:07:46.585Z,19.24
2023-05-19T17:10:14.524Z,19.23
2023-05-19T17:12:41.182Z,19.20
2023-05-19T17:15:08.458Z,19.16
2023-05-19T17:17:35.093Z,19.06
2023-05-19T17:20:01.791Z,18.96
2023-05-19T17:22:30.125Z,18.88
2023-05-19T17:24:57.008Z,18.82
2023-05-19T17:27:25.199Z,18.72
2023-05-19T17:29:51.802Z,18.65
2023-05-19T17:32:18.512Z,18.57
2023-05-19T17:34:45.227Z,18.52
2023-05-19T17:37:11.837Z,18.48
2023-05-19T17:39:38.504Z,18.43
2023-05-19T17:42:05.326Z,18.40
2023-05-19T17:44:33.319Z,18.33
2023-05-19T17:46:59.957Z,18.30
2023-05-19T17:49:26.750Z,18.27
2023-05-19T17:51:53.841Z,18.22
2023-05-19T17:54:20.918Z,18.17
2023-05-19T17:56:50.008Z,18.12
2023-05-19T17:59:17.041Z,18.04
2023-05-19T18:01:45.793Z,18.00
2023-05-19T18:04:14.625Z,17.99
2023-05-19T18:06:44.959Z,17.98
2023-05-19T18:09:13.682Z,17.95
2023-05-19T18:11:40.296Z,17.89
2023-05-19T18:14:06.979Z,17.82
2023-05-19T18:16:33.696Z,17.78
2023-05-19T18:19:02.906Z,17.71
2023-05-19T18:21:29.576Z,17.68
2023-05-19T18:23:56.103Z,17.67
2023-05-19T18:26:22.824Z,17.62
2023-05-19T18:28:49.406Z,17.56
2023-05-19T18:31:16.011Z,17.49
2023-05-19T18:33:43.706Z,17.43
2023-05-19T18:36:11.735Z,17.38
2023-05-19T18:38:38.315Z,17.34
2023-05-19T18:41:06.643Z,17.28
2023-05-19T18:43:33.380Z,17.23
2023-05-19T18:46:00.065Z,17.18
2023-05-19T18:48:26.819Z,17.12
2023-05-19T18:50:53.448Z,17.06
2023-05-19T18:53:22.138Z,16.99
2023-05-19T18:55:48.749Z,16.95
2023-05-19T18:58:15.349Z,16.92
2023-05-19T19:00:42.012Z,16.87
2023-05-19T19:03:08.619Z,16.82
2023-05-19T19:05:35.261Z,16.78
2023-05-19T19:08:01.907Z,16.74
2023-05-19T19:10:29.901Z,16.70
2023-05-19T19:12:56.586Z,16.63
2023-05-19T19:15:23.192Z,16.60
2023-05-19T19:17:49.835Z,16.55
2023-05-19T19:20:16.643Z,16.50
2023-05-19T19:22:43.248Z,16.46
2023-05-19T19:25:10.015Z,16.42
2023-05-19T19:27:38.290Z,16.38
2023-05-19T19:30:06.101Z,16.32
2023-05-19T19:32:32.757Z,16.27
2023-05-19T19:34:59.409Z,16.23
2023-05-19T19:37:26.044Z,16.19
2023-05-19T19:39:52.732Z,16.17
2023-05-19T19:42:19.308Z,16.13
2023-05-19T19:44:47.328Z,16.10
2023-05-19T19:47:13.929Z,16.05
2023-05-19T19:49:40.501Z,16.02
2023-05-19T19:52:07.206Z,15.99
2023-05-19T19:54:33.808Z,15.94
2023-05-19T19:57:00.417Z,15.91
2023-05-19T19:59:27.113Z,15.89
2023-05-19T20:01:55.115Z,15.87
2023-05-19T20:04:21.825Z,15.85
2023-05-19T20:06:48.565Z,15.81
2023-05-19T20:09:15.194Z,15.80
2023-05-19T20:11:41.880Z,15.75
2023-05-19T20:14:08.427Z,15.72
2023-05-19T20:16:35.320Z,15.68
2023-05-19T20:19:03.374Z,15.65
2023-05-19T20:21:29.969Z,15.62
2023-05-19T20:23:56.522Z,15.57
2023-05-19T20:26:23.118Z,15.54
2023-05-19T20:28:49.712Z,15.50
2023-05-19T20:31:16.263Z,15.47
2023-05-19T20:33:42.926Z,15.42
2023-05-19T20:36:10.913Z,15.39
2023-05-19T20:38:37.549Z,15.35
2023-05-19T20:41:04.157Z,15.31
2023-05-19T20:43:31.274Z,15.31
2023-05-19T20:45:57.880Z,15.27
2023-05-19T20:48:24.528Z,15.25
2023-05-19T20:50:51.171Z,15.23
2023-05-19T20:53:19.807Z,15.21
2023-05-19T20:55:46.529Z,15.18
2023-05-19T20:58:13.737Z,15.14
2023-05-19T21:00:40.383Z,15.12
2023-05-19T21:03:07.245Z,15.08
2023-05-19T21:05:34.055Z,15.02
2023-05-19T21:08:00.859Z,14.98
2023-05-19T21:10:28.925Z,14.94
2023-05-19T21:12:55.565Z,14.90
2023-05-19T21:15:22.335Z,14.85
2023-05-19T21:17:49.227Z,14.81
2023-05-19T21:20:15.865Z,14.78
2023-05-19T21:22:42.510Z,14.74
2023-05-19T21:25:09.405Z,14.70
2023-05-19T21:27:37.430Z,14.65
2023-05-19T21:30:04.447Z,14.60
2023-05-19T21:32:31.191Z,14.55
2023-05-19T21:34:57.876Z,14.51
2023-05-19T21:37:24.472Z,14.47
2023-05-19T21:39:51.104Z,14.44
2023-05-19T21:42:17.742Z,14.41
2023-05-19T21:44:45.684Z,14.39
2023-05-19T21:47:12.260Z,14.35
2023-05-19T21:49:38.867Z,14.33
2023-05-19T21:52:06.449Z,14.31
2023-05-19T21:54:33.056Z,14.27
2023-05-19T21:57:00.078Z,14.25
2023-05-19T21:59:26.669Z,14.20
2023-05-19T22:01:54.661Z,14.16
2023-05-19T22:04:22.451Z,14.13
2023-05-19T22:06:49.119Z,14.10
2023-05-19T22:09:15.777Z,14.04
2023-05-19T22:11:42.405Z,13.99
2023-05-19T22:14:09.009Z,13.96
2023-05-19T22:16:35.665Z,13.90
2023-05-19T22:19:03.755Z,13.87
2023-05-19T22:21:30.346Z,13.83
2023-05-19T22:23:56.942Z,13.78
2023-05-19T22:26:23.507Z,13.75
2023-05-19T22:28:50.177Z,13.73
2023-05-19T22:31:16.854Z,13.72
2023-05-19T22:33:43.536Z,13.69
2023-05-19T22:36:11.451Z,13.66
2023-05-19T22:38:38.011Z,13.63
2023-05-19T22:41:04.672Z,13.58
2023-05-19T22:43:31.367Z,13.54
2023-05-19T22:45:57.982Z,13.49
2023-05-19T22:48:24.719Z,13.48
2023-05-19T22:50:51.376Z,13.41
2023-05-19T22:53:19.273Z,13.36
2023-05-19T22:55:45.923Z,13.30
2023-05-19T22:58:12.568Z,13.24
2023-05-19T23:00:39.139Z,13.19
2023-05-19T23:03:05.823Z,13.15
2023-05-19T23:05:32.653Z,13.13
2023-05-19T23:07:59.350Z,13.10
2023-05-19T23:10:27.339Z,13.07
2023-05-19T23:12:53.932Z,13.02
2023-05-19T23:15:20.493Z,13.02
2023-05-19T23:17:47.170Z,13.01
2023-05-19T23:20:13.750Z,12.97
2023-05-19T23:22:40.339Z,12.94
2023-05-19T23:25:07.739Z,12.91
2023-05-19T23:27:36.360Z,12.89
2023-05-19T23:30:03.338Z,12.87
2023-05-19T23:32:30.025Z,12.85
2023-05-19T23:34:56.759Z,12.75
2023-05-19T23:37:23.291Z,12.68
2023-05-19T23:39:49.901Z,12.64
2023-05-19T23:42:16.583Z,12.60
2023-05-19T23:44:44.579Z,12.57
2023-05-19T23:47:11.191Z,12.51
2023-05-19T23:49:37.794Z,12.47
2023-05-19T23:52:04.664Z,12.43
2023-05-19T23:54:31.285Z,12.39
2023-05-19T23:56:57.914Z,12.34
2023-05-19T23:59:24.487Z,12.31
